French Camp, California
Current Conditions -  °F | °C
As of 6:55 PM on Friday 21 Nov 2014 (Local Time) from KSCK Reporting Station
Clear Clear  
Wind Chill: 55°   Ceiling: Unl
Heat Index: 55°   Visibility: 9mi
Dew Point: 51°   Wind: 5mph
Humidity: 86%   Direction: 80°E
Pressure: 30.11"   Gusts: NA
Location:  37.88°N, 121.27°W
Report Text: KSCK 220255Z 08004KT 9SM CLR 13/11 A3011 RMK AO2 SLP197 T01280106 51005
Loading
Personal Weather Stations






























Interactive Weather Map New forecast layout! Learn more

10-Day Weather Forecast

Advertisements
Track Severe Weather on mobile